createdAt,value
2018-02-10T00:00:07.047Z,1033.51
2018-02-10T00:01:07.029Z,1033.53
2018-02-10T00:02:07.015Z,1033.53
2018-02-10T00:03:07.000Z,1033.51
2018-02-10T00:04:06.985Z,1033.55
2018-02-10T00:05:06.968Z,1033.48
2018-02-10T00:06:06.952Z,1033.49
2018-02-10T00:07:06.939Z,1033.48
2018-02-10T00:08:06.922Z,1033.45
2018-02-10T00:09:06.905Z,1033.47
2018-02-10T00:10:06.889Z,1033.46
2018-02-10T00:11:06.880Z,1033.44
2018-02-10T00:12:06.858Z,1033.42
2018-02-10T00:13:06.844Z,1033.44
2018-02-10T00:14:06.827Z,1033.44
2018-02-10T00:15:06.812Z,1033.44
2018-02-10T00:16:06.795Z,1033.44
2018-02-10T00:17:06.780Z,1033.42
2018-02-10T00:18:06.765Z,1033.42
2018-02-10T00:19:06.750Z,1033.43
2018-02-10T00:20:06.732Z,1033.42
2018-02-10T00:21:06.719Z,1033.41
2018-02-10T00:22:06.707Z,1033.43
2018-02-10T00:23:06.688Z,1033.46
2018-02-10T00:24:06.672Z,1033.44
2018-02-10T00:25:06.655Z,1033.42
2018-02-10T00:26:06.641Z,1033.46
2018-02-10T00:27:06.625Z,1033.45
2018-02-10T00:28:06.608Z,1033.43
2018-02-10T00:29:06.595Z,1033.38
2018-02-10T00:30:06.579Z,1033.36
2018-02-10T00:31:06.561Z,1033.37
2018-02-10T00:32:06.547Z,1033.26
2018-02-10T00:33:06.531Z,1033.27
2018-02-10T00:34:06.516Z,1033.26
2018-02-10T00:35:06.500Z,1033.27
2018-02-10T00:36:06.485Z,1033.33
2018-02-10T00:37:06.476Z,1033.37
2018-02-10T00:38:06.454Z,1033.4
2018-02-10T00:39:06.439Z,1033.42
2018-02-10T00:40:06.422Z,1033.42
2018-02-10T00:41:06.409Z,1033.43
2018-02-10T00:42:06.392Z,1033.47
2018-02-10T00:43:06.376Z,1033.46
2018-02-10T00:44:06.362Z,1033.43
2018-02-10T00:45:06.346Z,1033.42
2018-02-10T00:46:06.332Z,1033.43
2018-02-10T00:47:06.315Z,1033.45
2018-02-10T00:48:06.300Z,1033.45
2018-02-10T00:49:06.283Z,1033.48
2018-02-10T00:50:06.268Z,1033.46
2018-02-10T00:51:06.260Z,1033.5
2018-02-10T00:52:06.242Z,1033.51
2018-02-10T00:53:06.221Z,1033.48
2018-02-10T00:54:06.209Z,1033.46
2018-02-10T00:55:06.192Z,1033.46
2018-02-10T00:56:06.175Z,1033.51
2018-02-10T00:57:06.161Z,1033.49
2018-02-10T00:58:06.144Z,1033.5
2018-02-10T00:59:06.129Z,1033.49
2018-02-10T01:00:06.113Z,1033.51
2018-02-10T01:01:06.098Z,1033.54
2018-02-10T01:02:06.082Z,1033.57
2018-02-10T01:03:06.070Z,1033.62
2018-02-10T01:04:06.052Z,1033.63
2018-02-10T01:05:06.037Z,1033.65
2018-02-10T01:06:06.025Z,1033.6
2018-02-10T01:07:06.007Z,1033.53
2018-02-10T01:08:05.990Z,1033.58
2018-02-10T01:09:05.977Z,1033.65
2018-02-10T01:10:05.960Z,1033.62
2018-02-10T01:11:05.943Z,1033.64
2018-02-10T01:12:05.932Z,1033.63
2018-02-10T01:13:05.913Z,1033.63
2018-02-10T01:14:05.898Z,1033.63
2018-02-10T01:15:05.881Z,1033.61
2018-02-10T01:16:05.867Z,1033.62
2018-02-10T01:17:05.852Z,1033.65
2018-02-10T01:18:05.836Z,1033.66
2018-02-10T01:19:05.821Z,1033.64
2018-02-10T01:20:05.804Z,1033.63
2018-02-10T01:21:05.790Z,1033.61
2018-02-10T01:22:05.777Z,1033.58
2018-02-10T01:23:05.757Z,1033.6
2018-02-10T01:24:05.743Z,1033.68
2018-02-10T01:25:05.725Z,1033.7
2018-02-10T01:26:05.711Z,1033.71
2018-02-10T01:27:05.694Z,1033.7
2018-02-10T01:28:05.679Z,1033.67
2018-02-10T01:29:05.663Z,1033.61
2018-02-10T01:30:05.649Z,1033.62
2018-02-10T01:31:05.634Z,1033.65
2018-02-10T01:32:05.617Z,1033.66
2018-02-10T01:33:05.601Z,1033.66
2018-02-10T01:34:05.587Z,1033.67
2018-02-10T01:35:05.572Z,1033.67
2018-02-10T01:36:05.554Z,1033.71
2018-02-10T01:37:05.540Z,1033.66
2018-02-10T01:38:05.523Z,1033.74
2018-02-10T01:39:05.508Z,1033.75
2018-02-10T01:40:05.491Z,1033.74
2018-02-10T01:41:05.480Z,1033.75
2018-02-10T01:42:05.461Z,1033.71
2018-02-10T01:43:05.446Z,1033.74
2018-02-10T01:44:05.430Z,1033.7
2018-02-10T01:45:05.415Z,1033.7
2018-02-10T01:46:05.399Z,1033.71
2018-02-10T01:47:05.384Z,1033.71
2018-02-10T01:48:05.369Z,1033.71
2018-02-10T01:49:05.353Z,1033.73
2018-02-10T01:50:05.338Z,1033.72
2018-02-10T01:51:05.321Z,1033.68
2018-02-10T01:52:05.306Z,1033.7
2018-02-10T01:53:05.290Z,1033.74
2018-02-10T01:54:05.525Z,1033.76
2018-02-10T01:55:05.259Z,1033.77
2018-02-10T01:56:05.244Z,1033.74
2018-02-10T01:57:05.228Z,1033.71
2018-02-10T01:58:05.216Z,1033.66
2018-02-10T01:59:05.196Z,1033.66
2018-02-10T02:00:05.181Z,1033.66
2018-02-10T02:01:05.223Z,1033.64
2018-02-10T02:02:05.150Z,1033.65
2018-02-10T02:03:05.137Z,1033.62
2018-02-10T02:04:05.119Z,1033.63
2018-02-10T02:05:05.103Z,1033.69
2018-02-10T02:06:05.089Z,1033.64
2018-02-10T02:07:05.071Z,1033.63
2018-02-10T02:08:05.056Z,1033.66
2018-02-10T02:09:05.041Z,1033.62
2018-02-10T02:10:05.024Z,1033.61
2018-02-10T02:11:05.010Z,1033.61
2018-02-10T02:12:04.994Z,1033.61
2018-02-10T02:13:04.978Z,1033.55
2018-02-10T02:14:04.966Z,1033.47
2018-02-10T02:15:04.948Z,1033.47
2018-02-10T02:16:04.931Z,1033.44
2018-02-10T02:17:04.916Z,1033.47
2018-02-10T02:18:04.899Z,1033.46
2018-02-10T02:19:04.885Z,1033.44
2018-02-10T02:20:04.873Z,1033.44
2018-02-10T02:21:04.852Z,1033.43
2018-02-10T02:22:04.837Z,1033.43
2018-02-10T02:23:04.821Z,1033.4
2018-02-10T02:24:04.807Z,1033.43
2018-02-10T02:25:04.792Z,1033.44
2018-02-10T02:26:04.776Z,1033.46
2018-02-10T02:27:04.759Z,1033.47
2018-02-10T02:28:04.747Z,1033.48
2018-02-10T02:29:04.728Z,1033.47
2018-02-10T02:30:04.715Z,1033.37
2018-02-10T02:31:04.697Z,1033.37
2018-02-10T02:32:04.688Z,1033.4
2018-02-10T02:33:04.667Z,1033.37
2018-02-10T02:34:04.651Z,1033.42
2018-02-10T02:35:04.634Z,1033.42
2018-02-10T02:36:04.619Z,1033.49
2018-02-10T02:37:04.605Z,1033.53
2018-02-10T02:38:04.589Z,1033.56
2018-02-10T02:39:04.573Z,1033.65
2018-02-10T02:40:04.558Z,1033.73
2018-02-10T02:41:04.543Z,1033.75
2018-02-10T02:42:04.526Z,1033.76
2018-02-10T02:43:04.511Z,1033.76
2018-02-10T02:44:04.495Z,1033.76
2018-02-10T02:45:04.483Z,1033.73
2018-02-10T02:46:04.463Z,1033.76
2018-02-10T02:47:04.449Z,1033.78
2018-02-10T02:48:04.433Z,1033.75
2018-02-10T02:49:04.418Z,1033.73
2018-02-10T02:50:04.402Z,1033.78
2018-02-10T02:51:04.387Z,1033.76
2018-02-10T02:52:04.371Z,1033.8
2018-02-10T02:53:04.354Z,1033.81
2018-02-10T02:54:04.340Z,1033.86
2018-02-10T02:55:04.324Z,1033.88
2018-02-10T02:56:04.307Z,1033.85
2018-02-10T02:57:04.297Z,1033.86
2018-02-10T02:58:04.276Z,1033.9
2018-02-10T02:59:04.259Z,1033.86
2018-02-10T03:00:04.244Z,1033.87
2018-02-10T03:01:04.227Z,1033.87
2018-02-10T03:02:04.213Z,1033.89
2018-02-10T03:03:04.198Z,1033.88
2018-02-10T03:04:04.181Z,1033.86
2018-02-10T03:05:04.164Z,1033.89
2018-02-10T03:06:04.149Z,1033.81
2018-02-10T03:07:04.134Z,1033.75
2018-02-10T03:08:04.117Z,1033.73
2018-02-10T03:09:04.104Z,1033.67
2018-02-10T03:10:04.087Z,1033.67
2018-02-10T03:11:04.069Z,1033.66
2018-02-10T03:12:04.054Z,1033.69
2018-02-10T03:13:04.038Z,1033.66
2018-02-10T03:14:04.022Z,1033.72
2018-02-10T03:15:04.007Z,1033.72
2018-02-10T03:16:03.990Z,1033.71
2018-02-10T03:17:03.981Z,1033.63
2018-02-10T03:18:03.959Z,1033.65
2018-02-10T03:19:03.942Z,1033.64
2018-02-10T03:20:03.926Z,1033.68
2018-02-10T03:21:03.912Z,1033.72
2018-02-10T03:22:03.894Z,1033.71
2018-02-10T03:23:03.880Z,1033.72
2018-02-10T03:24:03.865Z,1033.65
2018-02-10T03:25:03.848Z,1033.65
2018-02-10T03:26:03.832Z,1033.69
2018-02-10T03:27:03.822Z,1033.68
2018-02-10T03:28:03.803Z,1033.63
2018-02-10T03:29:03.784Z,1033.61
2018-02-10T03:30:03.769Z,1033.62
2018-02-10T03:31:03.754Z,1033.67
2018-02-10T03:32:03.737Z,1033.67
2018-02-10T03:33:03.720Z,1033.7
2018-02-10T03:34:03.704Z,1033.74
2018-02-10T03:35:03.690Z,1033.73
2018-02-10T03:36:03.674Z,1033.76
2018-02-10T03:37:03.657Z,1033.77
2018-02-10T03:38:03.642Z,1033.74
2018-02-10T03:39:03.626Z,1033.7
2018-02-10T03:40:03.610Z,1033.74
2018-02-10T03:41:03.593Z,1033.73
2018-02-10T03:42:03.578Z,1033.74
2018-02-10T03:43:03.562Z,1033.74
2018-02-10T03:44:03.546Z,1033.73
2018-02-10T03:45:03.531Z,1033.71
2018-02-10T03:46:03.515Z,1033.71
2018-02-10T03:47:03.500Z,1033.71
2018-02-10T03:48:03.483Z,1033.74
2018-02-10T03:49:03.466Z,1033.69
2018-02-10T03:50:03.450Z,1033.69
2018-02-10T03:51:03.438Z,1033.66
2018-02-10T03:52:03.422Z,1033.64
2018-02-10T03:53:03.404Z,1033.61
2018-02-10T03:54:03.387Z,1033.56
2018-02-10T03:55:03.371Z,1033.58
2018-02-10T03:56:03.356Z,1033.58
2018-02-10T03:57:03.340Z,1033.58
2018-02-10T03:58:03.324Z,1033.65
2018-02-10T03:59:03.308Z,1033.66
2018-02-10T04:00:03.292Z,1033.73
2018-02-10T04:01:03.275Z,1033.73
2018-02-10T04:02:03.260Z,1033.73
2018-02-10T04:03:03.243Z,1033.74
2018-02-10T04:04:03.227Z,1033.73
2018-02-10T04:05:03.212Z,1033.72
2018-02-10T04:06:03.196Z,1033.72
2018-02-10T04:07:03.180Z,1033.67
2018-02-10T04:08:03.164Z,1033.7
2018-02-10T04:09:03.148Z,1033.66
2018-02-10T04:10:03.131Z,1033.68
2018-02-10T04:11:03.117Z,1033.67
2018-02-10T04:12:03.100Z,1033.68
2018-02-10T04:13:03.084Z,1033.73
2018-02-10T04:14:03.070Z,1033.81
2018-02-10T04:15:03.053Z,1033.89
2018-02-10T04:16:03.038Z,1033.94
2018-02-10T04:17:03.021Z,1033.93
2018-02-10T04:18:03.005Z,1033.97
2018-02-10T04:19:02.989Z,1033.97
2018-02-10T04:20:02.974Z,1034.01
2018-02-10T04:21:02.958Z,1034.03
2018-02-10T04:22:02.942Z,1033.96
2018-02-10T04:23:02.926Z,1033.98
2018-02-10T04:24:02.909Z,1033.95
2018-02-10T04:25:02.893Z,1033.97
2018-02-10T04:26:02.876Z,1033.93
2018-02-10T04:27:02.861Z,1033.94
2018-02-10T04:28:02.844Z,1033.93
2018-02-10T04:29:02.829Z,1033.92
2018-02-10T04:30:02.812Z,1033.88
2018-02-10T04:31:02.798Z,1033.89
2018-02-10T04:32:02.780Z,1033.82
2018-02-10T04:33:02.765Z,1033.83
2018-02-10T04:34:02.748Z,1033.81
2018-02-10T04:35:02.732Z,1033.83
2018-02-10T04:36:02.717Z,1033.85
2018-02-10T04:37:02.701Z,1033.81
2018-02-10T04:38:02.684Z,1033.84
2018-02-10T04:39:02.670Z,1033.81
2018-02-10T04:40:02.652Z,1033.78
2018-02-10T04:41:02.636Z,1033.75
2018-02-10T04:42:02.620Z,1033.76
2018-02-10T04:43:02.608Z,1033.73
2018-02-10T04:44:02.587Z,1033.69
2018-02-10T04:45:02.572Z,1033.63
2018-02-10T04:46:02.556Z,1033.64
2018-02-10T04:47:02.540Z,1033.68
2018-02-10T04:48:02.525Z,1033.68
2018-02-10T04:49:02.509Z,1033.66
2018-02-10T04:50:02.491Z,1033.61
2018-02-10T04:51:02.477Z,1033.6
2018-02-10T04:52:02.460Z,1033.62
2018-02-10T04:53:02.445Z,1033.61
2018-02-10T04:54:02.428Z,1033.59
2018-02-10T04:55:02.413Z,1033.59
2018-02-10T04:56:02.407Z,1033.59
2018-02-10T04:57:02.381Z,1033.55
2018-02-10T04:58:02.365Z,1033.59
2018-02-10T04:59:02.349Z,1033.56
2018-02-10T05:00:02.346Z,1033.54
2018-02-10T05:01:02.568Z,1033.53
2018-02-10T05:02:02.302Z,1033.52
2018-02-10T05:03:02.286Z,1033.53
2018-02-10T05:04:02.274Z,1033.51
2018-02-10T05:05:02.257Z,1033.49
2018-02-10T05:06:02.238Z,1033.54
2018-02-10T05:07:02.223Z,1033.49
2018-02-10T05:08:02.208Z,1033.55
2018-02-10T05:09:02.190Z,1033.54
2018-02-10T05:10:02.175Z,1033.48
2018-02-10T05:11:02.159Z,1033.52
2018-02-10T05:12:02.142Z,1033.5
2018-02-10T05:13:02.128Z,1033.48
2018-02-10T05:14:02.113Z,1033.5
2018-02-10T05:15:02.096Z,1033.46
2018-02-10T05:16:02.081Z,1033.48
2018-02-10T05:17:02.065Z,1033.47
2018-02-10T05:18:02.049Z,1033.47
2018-02-10T05:19:02.033Z,1033.43
2018-02-10T05:20:02.016Z,1033.39
2018-02-10T05:21:02.002Z,1033.41
2018-02-10T05:22:01.985Z,1033.38
2018-02-10T05:23:01.970Z,1033.41
2018-02-10T05:24:01.953Z,1033.46
2018-02-10T05:25:01.944Z,1033.45
2018-02-10T05:26:01.922Z,1033.46
2018-02-10T05:27:01.905Z,1033.49
2018-02-10T05:28:01.895Z,1033.44
2018-02-10T05:29:01.876Z,1033.45
2018-02-10T05:30:01.860Z,1033.44
2018-02-10T05:31:01.843Z,1033.43
2018-02-10T05:32:01.828Z,1033.41
2018-02-10T05:33:01.813Z,1033.42
2018-02-10T05:34:01.796Z,1033.4
2018-02-10T05:35:01.781Z,1033.4
2018-02-10T05:36:01.768Z,1033.39
2018-02-10T05:37:01.750Z,1033.44
2018-02-10T05:38:01.734Z,1033.4
2018-02-10T05:39:01.732Z,1033.43
2018-02-10T05:40:01.708Z,1033.42
2018-02-10T05:41:01.691Z,1033.46
2018-02-10T05:42:01.671Z,1033.47
2018-02-10T05:43:01.655Z,1033.47
2018-02-10T05:44:01.649Z,1033.48
2018-02-10T05:45:01.627Z,1033.42
2018-02-10T05:46:01.608Z,1033.43
2018-02-10T05:47:01.593Z,1033.43
2018-02-10T05:48:01.577Z,1033.41
2018-02-10T05:49:01.572Z,1033.42
2018-02-10T05:50:01.547Z,1033.44
2018-02-10T05:51:01.543Z,1033.47
2018-02-10T05:52:01.516Z,1033.49
2018-02-10T05:53:01.501Z,1033.52
2018-02-10T05:54:01.489Z,1033.53
2018-02-10T05:55:01.469Z,1033.52
2018-02-10T05:56:01.453Z,1033.6
2018-02-10T05:57:01.437Z,1033.56
2018-02-10T05:58:01.423Z,1033.57
2018-02-10T05:59:01.405Z,1033.6
2018-02-10T06:00:01.391Z,1033.57
2018-02-10T06:01:01.375Z,1033.56
2018-02-10T06:02:01.360Z,1033.57
2018-02-10T06:03:01.343Z,1033.57
2018-02-10T06:04:01.341Z,1033.58
2018-02-10T06:05:01.314Z,1033.6
2018-02-10T06:06:01.298Z,1033.63
2018-02-10T06:07:01.281Z,1033.61
2018-02-10T06:08:01.267Z,1033.59
2018-02-10T06:09:01.250Z,1033.62
2018-02-10T06:10:01.234Z,1033.65
2018-02-10T06:11:01.218Z,1033.65
2018-02-10T06:12:01.204Z,1033.67
2018-02-10T06:13:01.188Z,1033.63
2018-02-10T06:14:01.171Z,1033.59
2018-02-10T06:15:01.159Z,1033.58
2018-02-10T06:16:01.141Z,1033.6
2018-02-10T06:17:01.125Z,1033.61
2018-02-10T06:18:01.108Z,1033.56
2018-02-10T06:19:01.105Z,1033.54
2018-02-10T06:20:01.078Z,1033.6
2018-02-10T06:21:01.061Z,1033.62
2018-02-10T06:22:01.046Z,1033.64
2018-02-10T06:23:01.031Z,1033.63
2018-02-10T06:24:01.016Z,1033.67
2018-02-10T06:25:01.000Z,1033.64
2018-02-10T06:26:00.984Z,1033.66
2018-02-10T06:27:00.969Z,1033.66
2018-02-10T06:28:00.954Z,1033.63
2018-02-10T06:29:00.940Z,1033.67
2018-02-10T06:30:00.925Z,1033.63
2018-02-10T06:31:00.906Z,1033.64
2018-02-10T06:32:00.890Z,1033.65
2018-02-10T06:33:00.874Z,1033.69
2018-02-10T06:34:00.872Z,1033.67
2018-02-10T06:35:00.844Z,1033.66
2018-02-10T06:36:00.828Z,1033.65
2018-02-10T06:37:00.813Z,1033.68
2018-02-10T06:38:00.797Z,1033.7
2018-02-10T06:39:00.781Z,1033.68
2018-02-10T06:40:00.765Z,1033.7
2018-02-10T06:41:00.749Z,1033.72
2018-02-10T06:42:00.740Z,1033.71
2018-02-10T06:43:00.718Z,1033.67
2018-02-10T06:44:00.702Z,1033.64
2018-02-10T06:45:00.687Z,1033.66
2018-02-10T06:46:00.672Z,1033.62
2018-02-10T06:47:00.660Z,1033.6
2018-02-10T06:48:00.641Z,1033.58
2018-02-10T06:49:00.625Z,1033.56
2018-02-10T06:50:00.610Z,1033.58
2018-02-10T06:51:00.598Z,1033.6
2018-02-10T06:52:00.578Z,1033.58
2018-02-10T06:53:00.563Z,1033.58
2018-02-10T06:54:00.548Z,1033.55
2018-02-10T06:55:00.531Z,1033.52
2018-02-10T06:56:00.516Z,1033.55
2018-02-10T06:57:00.501Z,1033.57
2018-02-10T06:58:00.485Z,1033.6
2018-02-10T06:59:00.687Z,1033.63
2018-02-10T07:00:00.454Z,1033.64
2018-02-10T07:01:00.441Z,1033.65
2018-02-10T07:02:00.424Z,1033.63
2018-02-10T07:03:00.407Z,1033.61
2018-02-10T07:04:00.394Z,1033.6
2018-02-10T07:05:00.378Z,1033.63
2018-02-10T07:06:00.361Z,1033.63
2018-02-10T07:07:00.347Z,1033.62
2018-02-10T07:08:00.330Z,1033.58
2018-02-10T07:09:00.315Z,1033.58
2018-02-10T07:10:00.300Z,1033.61
2018-02-10T07:11:00.285Z,1033.59
2018-02-10T07:12:00.269Z,1033.63
2018-02-10T07:13:00.253Z,1033.64
2018-02-10T07:14:00.238Z,1033.61
2018-02-10T07:15:00.222Z,1033.61
2018-02-10T07:16:00.205Z,1033.61
2018-02-10T07:17:00.192Z,1033.64
2018-02-10T07:18:00.176Z,1033.67
2018-02-10T07:19:00.160Z,1033.7
2018-02-10T07:20:00.146Z,1033.69
2018-02-10T07:21:00.130Z,1033.71
2018-02-10T07:22:00.115Z,1033.73
2018-02-10T07:23:00.099Z,1033.75
2018-02-10T07:24:00.086Z,1033.73
2018-02-10T07:25:00.069Z,1033.7
2018-02-10T07:26:00.057Z,1033.66
2018-02-10T07:27:00.043Z,1033.65
2018-02-10T07:28:00.026Z,1033.6
2018-02-10T07:29:00.010Z,1033.59
2018-02-10T07:29:59.994Z,1033.5
2018-02-10T07:30:59.977Z,1033.5
2018-02-10T07:31:59.964Z,1033.48
2018-02-10T07:32:59.947Z,1033.42
2018-02-10T07:33:59.931Z,1033.47
2018-02-10T07:34:59.922Z,1033.42
2018-02-10T07:35:59.901Z,1033.45
2018-02-10T07:36:59.887Z,1033.51
2018-02-10T07:37:59.871Z,1033.43
2018-02-10T07:38:59.856Z,1033.48
2018-02-10T07:39:59.840Z,1033.49
2018-02-10T07:40:59.828Z,1033.49
2018-02-10T07:41:59.810Z,1033.47
2018-02-10T07:42:59.795Z,1033.43
2018-02-10T07:43:59.781Z,1033.39
2018-02-10T07:44:59.765Z,1033.34
2018-02-10T07:45:59.751Z,1033.33
2018-02-10T07:46:59.736Z,1033.28
2018-02-10T07:47:59.721Z,1033.25
2018-02-10T07:48:59.706Z,1033.22
2018-02-10T07:49:59.690Z,1033.21
2018-02-10T07:50:59.676Z,1033.2
2018-02-10T07:51:59.660Z,1033.19
2018-02-10T07:52:59.686Z,1033.21
2018-02-10T07:53:59.630Z,1033.17
2018-02-10T07:54:59.621Z,1033.21
2018-02-10T07:55:59.601Z,1033.21
2018-02-10T07:56:59.586Z,1033.19
2018-02-10T07:57:59.571Z,1033.22
2018-02-10T07:58:59.556Z,1033.23
2018-02-10T07:59:59.541Z,1033.24
2018-02-10T08:00:59.527Z,1033.21
2018-02-10T08:01:59.515Z,1033.14
2018-02-10T08:02:59.497Z,1033.13
2018-02-10T08:03:59.483Z,1033.11
2018-02-10T08:04:59.469Z,1033.11
2018-02-10T08:05:59.454Z,1033.12
2018-02-10T08:06:59.438Z,1033.1
2018-02-10T08:07:59.424Z,1033.13
2018-02-10T08:08:59.409Z,1033.14
2018-02-10T08:09:59.393Z,1033.12
2018-02-10T08:10:59.379Z,1033.11
2018-02-10T08:11:59.364Z,1033.13
2018-02-10T08:12:59.349Z,1033.08
2018-02-10T08:13:59.335Z,1033.09
2018-02-10T08:14:59.320Z,1033.08
2018-02-10T08:15:59.306Z,1033.07
2018-02-10T08:16:59.292Z,1033.08
2018-02-10T08:17:59.276Z,1033.08
2018-02-10T08:18:59.261Z,1033.08
2018-02-10T08:19:59.248Z,1033.09
2018-02-10T08:20:59.233Z,1033.06
2018-02-10T08:21:59.218Z,1033.01
2018-02-10T08:22:59.203Z,1032.97
2018-02-10T08:23:59.190Z,1032.94
2018-02-10T08:24:59.175Z,1032.93
2018-02-10T08:25:59.161Z,1032.9
2018-02-10T08:26:59.145Z,1032.87
2018-02-10T08:27:59.135Z,1032.9
2018-02-10T08:28:59.116Z,1032.88
2018-02-10T08:29:59.102Z,1032.84
2018-02-10T08:30:59.086Z,1032.85
2018-02-10T08:31:59.077Z,1032.86
2018-02-10T08:32:59.057Z,1032.91
2018-02-10T08:33:59.044Z,1032.9
2018-02-10T08:34:59.029Z,1032.9
2018-02-10T08:35:59.016Z,1032.92
2018-02-10T08:36:59.000Z,1032.92
2018-02-10T08:37:58.985Z,1032.94
2018-02-10T08:38:58.971Z,1033
2018-02-10T08:39:58.957Z,1032.99
2018-02-10T08:40:58.943Z,1033
2018-02-10T08:41:58.928Z,1032.98
2018-02-10T08:42:58.915Z,1032.92
2018-02-10T08:43:58.900Z,1033.01
2018-02-10T08:44:58.886Z,1033
2018-02-10T08:45:58.872Z,1032.98
2018-02-10T08:46:58.858Z,1032.99
2018-02-10T08:47:58.842Z,1033
2018-02-10T08:48:58.828Z,1033.01
2018-02-10T08:49:58.814Z,1032.92
2018-02-10T08:50:58.798Z,1032.91
2018-02-10T08:51:58.785Z,1032.94
2018-02-10T08:52:58.770Z,1032.89
2018-02-10T08:53:58.756Z,1032.92
2018-02-10T08:54:58.742Z,1032.91
2018-02-10T08:55:58.728Z,1032.92
2018-02-10T08:56:58.714Z,1032.89
2018-02-10T08:57:58.701Z,1032.92
2018-02-10T08:58:58.686Z,1032.9
2018-02-10T08:59:58.672Z,1032.86
2018-02-10T09:00:58.658Z,1032.85
2018-02-10T09:01:58.644Z,1032.82
2018-02-10T09:02:58.632Z,1032.81
2018-02-10T09:03:58.614Z,1032.85
2018-02-10T09:04:58.601Z,1032.89
2018-02-10T09:05:58.587Z,1032.9
2018-02-10T09:06:58.575Z,1032.89
2018-02-10T09:07:58.559Z,1032.87
2018-02-10T09:08:58.543Z,1032.94
2018-02-10T09:09:58.559Z,1032.92
2018-02-10T09:10:58.516Z,1032.91
2018-02-10T09:11:58.502Z,1032.92
2018-02-10T09:12:58.487Z,1032.93
2018-02-10T09:13:58.472Z,1032.92
2018-02-10T09:14:58.458Z,1032.92
2018-02-10T09:15:58.445Z,1032.95
2018-02-10T09:16:58.429Z,1032.96
2018-02-10T09:17:58.415Z,1032.96
2018-02-10T09:18:58.401Z,1032.93
2018-02-10T09:19:58.386Z,1032.99
2018-02-10T09:20:58.373Z,1033.05
2018-02-10T09:21:58.358Z,1033.03
2018-02-10T09:22:58.345Z,1033.07
2018-02-10T09:23:58.330Z,1033.07
2018-02-10T09:24:58.316Z,1033.08
2018-02-10T09:25:58.304Z,1033.09
2018-02-10T09:26:58.289Z,1033.13
2018-02-10T09:27:58.273Z,1033.1
2018-02-10T09:28:58.258Z,1033.06
2018-02-10T09:29:58.245Z,1033.05
2018-02-10T09:30:58.231Z,1032.96
2018-02-10T09:31:58.216Z,1032.93
2018-02-10T09:32:58.204Z,1032.85
2018-02-10T09:33:58.188Z,1032.84
2018-02-10T09:34:58.173Z,1032.78
2018-02-10T09:35:58.159Z,1032.76
2018-02-10T09:36:58.145Z,1032.73
2018-02-10T09:37:58.131Z,1032.71
2018-02-10T09:38:58.117Z,1032.66
2018-02-10T09:39:58.103Z,1032.66
2018-02-10T09:40:58.088Z,1032.64
2018-02-10T09:41:58.074Z,1032.64
2018-02-10T09:42:58.059Z,1032.56
2018-02-10T09:43:58.045Z,1032.54
2018-02-10T09:44:58.036Z,1032.48
2018-02-10T09:45:58.017Z,1032.5
2018-02-10T09:46:58.008Z,1032.48
2018-02-10T09:47:57.989Z,1032.46
2018-02-10T09:48:57.977Z,1032.47
2018-02-10T09:49:57.966Z,1032.43
2018-02-10T09:50:57.954Z,1032.43
2018-02-10T09:51:57.935Z,1032.45
2018-02-10T09:52:57.921Z,1032.45
2018-02-10T09:53:57.905Z,1032.46
2018-02-10T09:54:57.892Z,1032.43
2018-02-10T09:55:57.881Z,1032.42
2018-02-10T09:56:57.864Z,1032.42
2018-02-10T09:57:57.852Z,1032.45
2018-02-10T09:58:57.837Z,1032.46
2018-02-10T09:59:57.876Z,1032.43
2018-02-10T10:00:57.808Z,1032.37
2018-02-10T10:01:57.796Z,1032.37
2018-02-10T10:02:57.782Z,1032.31
2018-02-10T10:03:57.768Z,1032.22
2018-02-10T10:04:57.753Z,1032.22
2018-02-10T10:05:57.741Z,1032.12
2018-02-10T10:06:57.727Z,1032.12
2018-02-10T10:07:57.713Z,1032.06
2018-02-10T10:08:57.700Z,1032.05
2018-02-10T10:09:57.686Z,1031.97
2018-02-10T10:10:57.672Z,1031.93
2018-02-10T10:11:57.659Z,1031.91
2018-02-10T10:12:57.645Z,1031.84
2018-02-10T10:13:57.632Z,1031.82
2018-02-10T10:14:57.617Z,1031.77
2018-02-10T10:15:57.604Z,1031.75
2018-02-10T10:16:57.590Z,1031.74
2018-02-10T10:17:57.578Z,1031.7
2018-02-10T10:18:57.564Z,1031.74
2018-02-10T10:19:57.550Z,1031.72
2018-02-10T10:20:57.537Z,1031.69
2018-02-10T10:21:57.523Z,1031.64
2018-02-10T10:22:57.509Z,1031.64
2018-02-10T10:23:57.497Z,1031.61
2018-02-10T10:24:57.484Z,1031.61
2018-02-10T10:25:57.470Z,1031.57
2018-02-10T10:26:57.457Z,1031.51
2018-02-10T10:27:57.443Z,1031.51
2018-02-10T10:28:57.432Z,1031.47
2018-02-10T10:29:57.416Z,1031.45
2018-02-10T10:30:57.405Z,1031.45
2018-02-10T10:31:57.391Z,1031.41
2018-02-10T10:32:57.378Z,1031.4
2018-02-10T10:33:57.366Z,1031.35
2018-02-10T10:34:57.352Z,1031.25
2018-02-10T10:35:57.344Z,1031.22
2018-02-10T10:36:57.326Z,1031.2
2018-02-10T10:37:57.313Z,1031.17
2018-02-10T10:38:57.302Z,1031.12
2018-02-10T10:39:57.288Z,1031.09
2018-02-10T10:40:57.275Z,1030.96
2018-02-10T10:41:57.263Z,1030.92
2018-02-10T10:42:57.250Z,1030.85
2018-02-10T10:43:57.237Z,1030.83
2018-02-10T10:44:57.228Z,1030.79
2018-02-10T10:45:57.233Z,1030.75
2018-02-10T10:46:57.200Z,1030.76
2018-02-10T10:47:57.185Z,1030.77
2018-02-10T10:48:57.173Z,1030.78
2018-02-10T10:49:57.162Z,1030.77
2018-02-10T10:50:57.149Z,1030.76
2018-02-10T10:51:57.136Z,1030.79
2018-02-10T10:52:57.123Z,1030.76
2018-02-10T10:53:57.111Z,1030.75
2018-02-10T10:54:57.099Z,1030.71
2018-02-10T10:55:57.087Z,1030.76
2018-02-10T10:56:57.123Z,1030.8
2018-02-10T10:57:57.063Z,1030.81
2018-02-10T10:58:57.048Z,1030.84
2018-02-10T10:59:57.037Z,1030.82
2018-02-10T11:00:57.025Z,1030.85
2018-02-10T11:01:57.015Z,1030.87
2018-02-10T11:02:57.000Z,1030.86
2018-02-10T11:03:56.987Z,1030.86
2018-02-10T11:04:56.976Z,1030.84
2018-02-10T11:05:56.962Z,1030.88
2018-02-10T11:06:56.956Z,1030.87
2018-02-10T11:07:56.938Z,1030.87
2018-02-10T11:08:56.926Z,1030.85
2018-02-10T11:09:56.913Z,1030.86
2018-02-10T11:10:56.904Z,1030.91
2018-02-10T11:11:56.889Z,1030.97
2018-02-10T11:12:56.877Z,1030.99
2018-02-10T11:13:56.863Z,1031
2018-02-10T11:14:56.851Z,1031.03
2018-02-10T11:15:56.839Z,1031.03
2018-02-10T11:16:56.830Z,1031.05
2018-02-10T11:17:56.820Z,1031.01
2018-02-10T11:18:56.802Z,1031.01
2018-02-10T11:19:56.789Z,1031.01
2018-02-10T11:20:56.775Z,1031.02
2018-02-10T11:21:56.769Z,1030.99
2018-02-10T11:22:56.752Z,1030.96
2018-02-10T11:23:56.739Z,1030.91
2018-02-10T11:24:56.729Z,1030.93
2018-02-10T11:25:56.713Z,1030.9
2018-02-10T11:26:56.701Z,1030.91
2018-02-10T11:27:56.688Z,1030.86
2018-02-10T11:28:56.679Z,1030.84
2018-02-10T11:29:56.664Z,1030.8
2018-02-10T11:30:56.650Z,1030.77
2018-02-10T11:31:56.637Z,1030.66
2018-02-10T11:32:56.626Z,1030.59
2018-02-10T11:33:56.614Z,1030.6
2018-02-10T11:34:56.600Z,1030.57
2018-02-10T11:35:56.588Z,1030.55
2018-02-10T11:36:56.575Z,1030.51
2018-02-10T11:37:56.563Z,1030.45
2018-02-10T11:38:56.549Z,1030.44
2018-02-10T11:39:56.537Z,1030.33
2018-02-10T11:40:56.526Z,1030.27
2018-02-10T11:41:56.514Z,1030.2
2018-02-10T11:42:56.503Z,1030.2
2018-02-10T11:43:56.488Z,1030.17
2018-02-10T11:44:56.475Z,1030.13
2018-02-10T11:45:56.467Z,1030.16
2018-02-10T11:46:56.451Z,1030.13
2018-02-10T11:47:56.439Z,1030.11
2018-02-10T11:48:56.426Z,1030.09
2018-02-10T11:49:56.412Z,1030.09
2018-02-10T11:50:56.401Z,1030.1
2018-02-10T11:51:56.392Z,1030.04
2018-02-10T11:52:56.377Z,1030.01
2018-02-10T11:53:56.365Z,1029.99
2018-02-10T11:54:56.352Z,1029.98
2018-02-10T11:55:56.346Z,1029.98
2018-02-10T11:56:56.383Z,1029.9
2018-02-10T11:57:56.317Z,1029.86
2018-02-10T11:58:56.303Z,1029.81
2018-02-10T11:59:56.294Z,1029.8
2018-02-10T12:00:56.278Z,1029.8
2018-02-10T12:01:56.266Z,1029.79
2018-02-10T12:02:56.255Z,1029.91
2018-02-10T12:03:56.243Z,1029.92
2018-02-10T12:04:56.231Z,1029.97
2018-02-10T12:05:56.220Z,1030.07
2018-02-10T12:06:56.207Z,1030.1
2018-02-10T12:07:56.196Z,1030.05